BBW weather

Broken Bow Municipal Airport
Broken Bow, Nebraska, United States

Public forecast

Using degrees Fahrenheit for public forecast. Weather courtesy of forecast.io.

METAR (pilot weather report)

Retrieved 2019/08/20 14:53 UTC (25 minutes ago):

KBBW 201453Z AUTO 02006KT 10SM CLR 27/24 A3000 RMK AO2 SLP130 T02720239 53015

TAF (pilot weather forecast)

Closest forecast is North Platte Regional Airport Lee Bird Field, 50.6 nm (93.6 km) WSW. Retrieved 2019/08/20 12:22 UTC (3 hours ago):

TAF KLBF 201120Z 2012/2112 00000KT 5SM BR BKN180 FM201400 00000KT P6SM SCT180 FM210200 09008KT P6SM VCSH BKN200 FM210700 09008KT 5SM BR VCTS BKN100CB